sensor_id;sensor_type;location;lat;lon;timestamp;P1;durP1;ratioP1;P2;durP2;ratioP2
74849;SDS011;63397;47.480;19.238;2023-04-07T00:01:08;15.90;;;6.27;;
74849;SDS011;63397;47.480;19.238;2023-04-07T00:04:10;18.25;;;6.18;;
74849;SDS011;63397;47.480;19.238;2023-04-07T00:07:13;17.15;;;6.53;;
74849;SDS011;63397;47.480;19.238;2023-04-07T00:10:15;14.25;;;5.97;;
74849;SDS011;63397;47.480;19.238;2023-04-07T00:13:17;15.52;;;6.70;;
74849;SDS011;63397;47.480;19.238;2023-04-07T00:16:19;16.10;;;6.40;;
74849;SDS011;63397;47.480;19.238;2023-04-07T00:19:22;14.00;;;6.65;;
74849;SDS011;63397;47.480;19.238;2023-04-07T00:22:24;13.52;;;6.15;;
74849;SDS011;63397;47.480;19.238;2023-04-07T00:25:27;12.15;;;5.45;;
74849;SDS011;63397;47.480;19.238;2023-04-07T00:28:29;11.63;;;5.90;;
74849;SDS011;63397;47.480;19.238;2023-04-07T00:31:31;15.57;;;4.97;;
74849;SDS011;63397;47.480;19.238;2023-04-07T00:34:34;9.52;;;5.03;;
74849;SDS011;63397;47.480;19.238;2023-04-07T00:37:36;16.88;;;6.70;;
74849;SDS011;63397;47.480;19.238;2023-04-07T00:40:38;15.20;;;5.30;;
74849;SDS011;63397;47.480;19.238;2023-04-07T00:43:40;11.85;;;5.18;;
74849;SDS011;63397;47.480;19.238;2023-04-07T00:46:42;15.27;;;4.93;;
74849;SDS011;63397;47.480;19.238;2023-04-07T00:49:45;15.10;;;5.78;;
74849;SDS011;63397;47.480;19.238;2023-04-07T00:52:47;13.80;;;5.30;;
74849;SDS011;63397;47.480;19.238;2023-04-07T00:55:49;11.82;;;4.80;;
74849;SDS011;63397;47.480;19.238;2023-04-07T00:58:52;10.52;;;4.35;;
74849;SDS011;63397;47.480;19.238;2023-04-07T01:01:56;12.00;;;4.53;;
74849;SDS011;63397;47.480;19.238;2023-04-07T01:11:53;13.07;;;5.40;;
74849;SDS011;63397;47.480;19.238;2023-04-07T01:15:03;11.93;;;5.07;;
74849;SDS011;63397;47.480;19.238;2023-04-07T01:18:14;11.53;;;4.37;;
74849;SDS011;63397;47.480;19.238;2023-04-07T01:21:20;11.68;;;3.95;;
74849;SDS011;63397;47.480;19.238;2023-04-07T01:27:51;11.35;;;5.07;;
74849;SDS011;63397;47.480;19.238;2023-04-07T01:30:56;12.43;;;4.93;;
74849;SDS011;63397;47.480;19.238;2023-04-07T01:33:59;14.57;;;5.57;;
74849;SDS011;63397;47.480;19.238;2023-04-07T01:37:02;13.30;;;5.55;;
74849;SDS011;63397;47.480;19.238;2023-04-07T01:40:05;14.98;;;5.57;;
74849;SDS011;63397;47.480;19.238;2023-04-07T01:43:08;11.60;;;4.88;;
74849;SDS011;63397;47.480;19.238;2023-04-07T01:46:11;11.90;;;3.88;;
74849;SDS011;63397;47.480;19.238;2023-04-07T01:49:13;11.37;;;4.77;;
74849;SDS011;63397;47.480;19.238;2023-04-07T01:52:16;11.73;;;4.47;;
74849;SDS011;63397;47.480;19.238;2023-04-07T01:55:18;11.48;;;5.47;;
74849;SDS011;63397;47.480;19.238;2023-04-07T01:58:33;14.50;;;5.55;;
74849;SDS011;63397;47.480;19.238;2023-04-07T02:01:38;13.70;;;5.13;;
74849;SDS011;63397;47.480;19.238;2023-04-07T02:04:48;15.37;;;6.57;;
74849;SDS011;63397;47.480;19.238;2023-04-07T02:07:57;10.00;;;4.63;;
74849;SDS011;63397;47.480;19.238;2023-04-07T02:11:01;13.77;;;5.32;;
74849;SDS011;63397;47.480;19.238;2023-04-07T02:14:08;14.10;;;5.68;;
74849;SDS011;63397;47.480;19.238;2023-04-07T02:17:27;9.23;;;4.10;;
74849;SDS011;63397;47.480;19.238;2023-04-07T02:20:30;13.23;;;5.47;;
74849;SDS011;63397;47.480;19.238;2023-04-07T02:23:36;10.25;;;4.65;;
74849;SDS011;63397;47.480;19.238;2023-04-07T02:26:38;16.00;;;6.00;;
74849;SDS011;63397;47.480;19.238;2023-04-07T02:29:40;13.02;;;5.22;;
74849;SDS011;63397;47.480;19.238;2023-04-07T02:32:43;12.50;;;5.20;;
74849;SDS011;63397;47.480;19.238;2023-04-07T02:35:45;12.10;;;5.03;;
74849;SDS011;63397;47.480;19.238;2023-04-07T02:38:47;15.68;;;5.68;;
74849;SDS011;63397;47.480;19.238;2023-04-07T02:41:50;15.68;;;5.85;;
74849;SDS011;63397;47.480;19.238;2023-04-07T02:44:52;13.02;;;5.30;;
74849;SDS011;63397;47.480;19.238;2023-04-07T02:47:54;17.73;;;6.75;;
74849;SDS011;63397;47.480;19.238;2023-04-07T02:50:57;15.13;;;5.83;;
74849;SDS011;63397;47.480;19.238;2023-04-07T02:54:00;14.93;;;6.30;;
74849;SDS011;63397;47.480;19.238;2023-04-07T02:57:02;17.13;;;6.93;;
74849;SDS011;63397;47.480;19.238;2023-04-07T03:00:04;14.35;;;5.82;;
74849;SDS011;63397;47.480;19.238;2023-04-07T03:03:30;17.50;;;6.15;;
74849;SDS011;63397;47.480;19.238;2023-04-07T03:06:46;15.93;;;6.50;;
74849;SDS011;63397;47.480;19.238;2023-04-07T03:09:50;15.52;;;7.10;;
74849;SDS011;63397;47.480;19.238;2023-04-07T03:12:53;17.08;;;7.43;;
74849;SDS011;63397;47.480;19.238;2023-04-07T03:15:55;17.42;;;6.78;;
74849;SDS011;63397;47.480;19.238;2023-04-07T03:18:59;14.90;;;6.38;;
74849;SDS011;63397;47.480;19.238;2023-04-07T03:22:05;18.60;;;6.77;;
74849;SDS011;63397;47.480;19.238;2023-04-07T03:25:10;15.10;;;5.47;;
74849;SDS011;63397;47.480;19.238;2023-04-07T03:28:13;19.85;;;7.28;;
74849;SDS011;63397;47.480;19.238;2023-04-07T03:31:15;14.32;;;5.88;;
74849;SDS011;63397;47.480;19.238;2023-04-07T03:34:19;15.57;;;6.88;;
74849;SDS011;63397;47.480;19.238;2023-04-07T03:37:21;13.23;;;5.93;;
74849;SDS011;63397;47.480;19.238;2023-04-07T03:40:24;16.67;;;6.50;;
74849;SDS011;63397;47.480;19.238;2023-04-07T03:43:27;16.80;;;6.60;;
74849;SDS011;63397;47.480;19.238;2023-04-07T03:46:29;17.13;;;6.53;;
74849;SDS011;63397;47.480;19.238;2023-04-07T03:49:34;15.13;;;6.43;;
74849;SDS011;63397;47.480;19.238;2023-04-07T03:52:39;11.97;;;6.10;;
74849;SDS011;63397;47.480;19.238;2023-04-07T03:55:52;15.48;;;6.65;;
74849;SDS011;63397;47.480;19.238;2023-04-07T03:59:09;12.93;;;6.22;;
74849;SDS011;63397;47.480;19.238;2023-04-07T04:02:20;16.35;;;7.20;;
74849;SDS011;63397;47.480;19.238;2023-04-07T04:05:26;16.98;;;6.43;;
74849;SDS011;63397;47.480;19.238;2023-04-07T04:08:28;12.87;;;6.90;;
74849;SDS011;63397;47.480;19.238;2023-04-07T04:11:31;14.45;;;6.18;;
74849;SDS011;63397;47.480;19.238;2023-04-07T04:14:37;18.65;;;8.10;;
74849;SDS011;63397;47.480;19.238;2023-04-07T04:17:40;16.42;;;7.07;;
74849;SDS011;63397;47.480;19.238;2023-04-07T04:20:43;18.70;;;7.85;;
74849;SDS011;63397;47.480;19.238;2023-04-07T04:23:46;15.63;;;7.00;;
74849;SDS011;63397;47.480;19.238;2023-04-07T04:26:49;19.67;;;7.15;;
74849;SDS011;63397;47.480;19.238;2023-04-07T04:29:51;19.73;;;7.63;;
74849;SDS011;63397;47.480;19.238;2023-04-07T04:33:05;16.13;;;7.57;;
74849;SDS011;63397;47.480;19.238;2023-04-07T04:36:25;14.18;;;6.65;;
74849;SDS011;63397;47.480;19.238;2023-04-07T04:39:32;16.23;;;7.23;;
74849;SDS011;63397;47.480;19.238;2023-04-07T04:42:36;18.25;;;9.05;;
74849;SDS011;63397;47.480;19.238;2023-04-07T04:45:41;23.58;;;8.30;;
74849;SDS011;63397;47.480;19.238;2023-04-07T04:48:46;24.95;;;7.15;;
74849;SDS011;63397;47.480;19.238;2023-04-07T04:51:50;17.65;;;7.35;;
74849;SDS011;63397;47.480;19.238;2023-04-07T04:54:54;16.80;;;8.53;;
74849;SDS011;63397;47.480;19.238;2023-04-07T04:57:57;19.00;;;7.40;;
74849;SDS011;63397;47.480;19.238;2023-04-07T05:01:09;16.60;;;6.65;;
74849;SDS011;63397;47.480;19.238;2023-04-07T05:04:16;17.77;;;6.18;;
74849;SDS011;63397;47.480;19.238;2023-04-07T05:07:25;17.48;;;7.40;;
74849;SDS011;63397;47.480;19.238;2023-04-07T05:10:27;16.33;;;7.67;;
74849;SDS011;63397;47.480;19.238;2023-04-07T05:13:30;16.63;;;6.90;;
74849;SDS011;63397;47.480;19.238;2023-04-07T05:16:35;19.38;;;7.25;;
74849;SDS011;63397;47.480;19.238;2023-04-07T05:19:39;20.70;;;8.48;;
74849;SDS011;63397;47.480;19.238;2023-04-07T05:22:49;17.88;;;7.32;;
74849;SDS011;63397;47.480;19.238;2023-04-07T05:25:53;18.67;;;7.30;;
74849;SDS011;63397;47.480;19.238;2023-04-07T05:28:55;11.90;;;6.90;;
74849;SDS011;63397;47.480;19.238;2023-04-07T05:31:59;17.58;;;7.40;;
74849;SDS011;63397;47.480;19.238;2023-04-07T05:35:05;16.75;;;7.47;;
74849;SDS011;63397;47.480;19.238;2023-04-07T05:38:10;18.25;;;7.90;;
74849;SDS011;63397;47.480;19.238;2023-04-07T05:41:14;20.60;;;8.17;;
74849;SDS011;63397;47.480;19.238;2023-04-07T05:44:17;13.20;;;5.68;;
74849;SDS011;63397;47.480;19.238;2023-04-07T05:47:19;17.80;;;7.15;;
74849;SDS011;63397;47.480;19.238;2023-04-07T05:50:24;15.93;;;7.18;;
74849;SDS011;63397;47.480;19.238;2023-04-07T05:53:27;20.30;;;6.88;;
74849;SDS011;63397;47.480;19.238;2023-04-07T05:56:29;17.87;;;8.87;;
74849;SDS011;63397;47.480;19.238;2023-04-07T05:59:32;17.67;;;8.35;;
74849;SDS011;63397;47.480;19.238;2023-04-07T06:02:35;16.85;;;7.22;;
74849;SDS011;63397;47.480;19.238;2023-04-07T06:05:37;16.90;;;7.00;;
74849;SDS011;63397;47.480;19.238;2023-04-07T06:08:46;17.98;;;7.00;;
74849;SDS011;63397;47.480;19.238;2023-04-07T06:11:48;19.03;;;7.07;;
74849;SDS011;63397;47.480;19.238;2023-04-07T06:14:51;17.95;;;7.72;;
74849;SDS011;63397;47.480;19.238;2023-04-07T06:17:55;12.57;;;6.50;;
74849;SDS011;63397;47.480;19.238;2023-04-07T06:20:58;15.93;;;6.57;;
74849;SDS011;63397;47.480;19.238;2023-04-07T06:24:01;20.63;;;8.98;;
74849;SDS011;63397;47.480;19.238;2023-04-07T06:27:03;21.97;;;8.07;;
74849;SDS011;63397;47.480;19.238;2023-04-07T06:30:05;15.77;;;6.75;;
74849;SDS011;63397;47.480;19.238;2023-04-07T06:33:09;13.85;;;5.78;;
74849;SDS011;63397;47.480;19.238;2023-04-07T06:36:11;16.55;;;6.75;;
74849;SDS011;63397;47.480;19.238;2023-04-07T06:39:14;17.10;;;7.15;;
74849;SDS011;63397;47.480;19.238;2023-04-07T06:42:16;14.13;;;6.10;;
74849;SDS011;63397;47.480;19.238;2023-04-07T06:45:26;14.13;;;6.15;;
74849;SDS011;63397;47.480;19.238;2023-04-07T06:48:28;13.50;;;5.70;;
74849;SDS011;63397;47.480;19.238;2023-04-07T06:51:30;12.05;;;5.72;;
74849;SDS011;63397;47.480;19.238;2023-04-07T06:54:33;12.35;;;5.80;;
74849;SDS011;63397;47.480;19.238;2023-04-07T06:57:35;13.10;;;6.80;;
74849;SDS011;63397;47.480;19.238;2023-04-07T07:00:37;14.25;;;6.00;;
74849;SDS011;63397;47.480;19.238;2023-04-07T07:03:40;12.35;;;5.80;;
74849;SDS011;63397;47.480;19.238;2023-04-07T07:06:42;12.90;;;6.28;;
74849;SDS011;63397;47.480;19.238;2023-04-07T07:09:44;14.32;;;5.78;;
74849;SDS011;63397;47.480;19.238;2023-04-07T07:12:50;13.57;;;6.07;;
74849;SDS011;63397;47.480;19.238;2023-04-07T07:15:52;14.85;;;6.88;;
74849;SDS011;63397;47.480;19.238;2023-04-07T07:18:55;12.73;;;5.60;;
74849;SDS011;63397;47.480;19.238;2023-04-07T07:21:57;13.43;;;5.75;;
74849;SDS011;63397;47.480;19.238;2023-04-07T07:25:00;13.85;;;6.00;;
74849;SDS011;63397;47.480;19.238;2023-04-07T07:28:02;13.27;;;6.23;;
74849;SDS011;63397;47.480;19.238;2023-04-07T07:31:10;14.85;;;5.65;;
74849;SDS011;63397;47.480;19.238;2023-04-07T07:34:16;14.70;;;5.63;;
74849;SDS011;63397;47.480;19.238;2023-04-07T07:37:19;16.17;;;4.93;;
74849;SDS011;63397;47.480;19.238;2023-04-07T07:40:21;10.05;;;4.50;;
74849;SDS011;63397;47.480;19.238;2023-04-07T07:43:23;12.67;;;5.20;;
74849;SDS011;63397;47.480;19.238;2023-04-07T07:46:25;11.52;;;5.10;;
74849;SDS011;63397;47.480;19.238;2023-04-07T07:49:28;10.38;;;3.70;;
74849;SDS011;63397;47.480;19.238;2023-04-07T07:52:30;13.23;;;4.20;;
74849;SDS011;63397;47.480;19.238;2023-04-07T07:55:32;12.13;;;5.60;;
74849;SDS011;63397;47.480;19.238;2023-04-07T07:58:35;10.80;;;4.10;;
74849;SDS011;63397;47.480;19.238;2023-04-07T08:01:37;8.70;;;3.97;;
74849;SDS011;63397;47.480;19.238;2023-04-07T08:04:39;10.85;;;4.47;;
74849;SDS011;63397;47.480;19.238;2023-04-07T08:07:42;12.77;;;4.90;;
74849;SDS011;63397;47.480;19.238;2023-04-07T08:10:44;9.27;;;3.58;;
74849;SDS011;63397;47.480;19.238;2023-04-07T08:13:47;11.83;;;4.83;;
74849;SDS011;63397;47.480;19.238;2023-04-07T08:16:49;13.45;;;5.05;;
74849;SDS011;63397;47.480;19.238;2023-04-07T08:19:51;10.40;;;4.82;;
74849;SDS011;63397;47.480;19.238;2023-04-07T08:22:54;14.80;;;5.47;;
74849;SDS011;63397;47.480;19.238;2023-04-07T08:25:56;11.60;;;5.00;;
74849;SDS011;63397;47.480;19.238;2023-04-07T08:28:59;8.10;;;4.47;;
74849;SDS011;63397;47.480;19.238;2023-04-07T08:32:01;13.52;;;5.68;;
74849;SDS011;63397;47.480;19.238;2023-04-07T08:35:03;10.70;;;4.53;;
74849;SDS011;63397;47.480;19.238;2023-04-07T08:38:06;15.73;;;6.38;;
74849;SDS011;63397;47.480;19.238;2023-04-07T08:41:10;13.90;;;6.20;;
74849;SDS011;63397;47.480;19.238;2023-04-07T08:44:13;10.77;;;4.77;;
74849;SDS011;63397;47.480;19.238;2023-04-07T08:47:16;11.57;;;4.47;;
74849;SDS011;63397;47.480;19.238;2023-04-07T08:50:18;16.05;;;5.65;;
74849;SDS011;63397;47.480;19.238;2023-04-07T08:53:25;13.02;;;5.57;;
74849;SDS011;63397;47.480;19.238;2023-04-07T08:56:31;12.98;;;5.43;;
74849;SDS011;63397;47.480;19.238;2023-04-07T08:59:34;13.13;;;5.50;;
74849;SDS011;63397;47.480;19.238;2023-04-07T09:02:37;13.27;;;6.05;;
74849;SDS011;63397;47.480;19.238;2023-04-07T09:05:40;11.75;;;5.43;;
74849;SDS011;63397;47.480;19.238;2023-04-07T09:08:42;14.45;;;5.28;;
74849;SDS011;63397;47.480;19.238;2023-04-07T09:11:46;13.02;;;5.80;;
74849;SDS011;63397;47.480;19.238;2023-04-07T09:14:49;12.57;;;5.73;;
74849;SDS011;63397;47.480;19.238;2023-04-07T09:17:51;13.73;;;6.03;;
74849;SDS011;63397;47.480;19.238;2023-04-07T09:23:59;13.07;;;6.22;;
74849;SDS011;63397;47.480;19.238;2023-04-07T09:27:07;15.55;;;6.75;;
74849;SDS011;63397;47.480;19.238;2023-04-07T09:30:14;12.80;;;5.73;;
74849;SDS011;63397;47.480;19.238;2023-04-07T09:33:17;12.70;;;5.35;;
74849;SDS011;63397;47.480;19.238;2023-04-07T09:36:28;12.63;;;5.22;;
74849;SDS011;63397;47.480;19.238;2023-04-07T09:39:30;13.15;;;6.57;;
74849;SDS011;63397;47.480;19.238;2023-04-07T09:42:33;16.70;;;7.45;;
74849;SDS011;63397;47.480;19.238;2023-04-07T09:45:37;12.83;;;5.57;;
74849;SDS011;63397;47.480;19.238;2023-04-07T09:48:40;14.35;;;5.97;;
74849;SDS011;63397;47.480;19.238;2023-04-07T09:51:56;16.80;;;7.18;;
74849;SDS011;63397;47.480;19.238;2023-04-07T09:54:59;15.82;;;6.20;;
74849;SDS011;63397;47.480;19.238;2023-04-07T09:58:01;12.75;;;5.47;;
74849;SDS011;63397;47.480;19.238;2023-04-07T10:01:08;13.50;;;6.37;;
74849;SDS011;63397;47.480;19.238;2023-04-07T10:04:11;12.88;;;6.32;;
74849;SDS011;63397;47.480;19.238;2023-04-07T10:07:13;15.93;;;6.38;;
74849;SDS011;63397;47.480;19.238;2023-04-07T10:10:16;14.40;;;5.43;;
74849;SDS011;63397;47.480;19.238;2023-04-07T10:13:18;16.23;;;6.53;;
74849;SDS011;63397;47.480;19.238;2023-04-07T10:16:22;18.60;;;8.03;;
74849;SDS011;63397;47.480;19.238;2023-04-07T10:19:25;15.55;;;6.50;;
74849;SDS011;63397;47.480;19.238;2023-04-07T10:22:28;17.95;;;7.78;;
74849;SDS011;63397;47.480;19.238;2023-04-07T10:25:30;18.48;;;7.47;;
74849;SDS011;63397;47.480;19.238;2023-04-07T10:28:33;22.30;;;7.75;;
74849;SDS011;63397;47.480;19.238;2023-04-07T10:31:36;16.77;;;6.33;;
74849;SDS011;63397;47.480;19.238;2023-04-07T10:57:19;17.80;;;6.75;;
74849;SDS011;63397;47.480;19.238;2023-04-07T11:00:22;17.50;;;7.45;;
74849;SDS011;63397;47.480;19.238;2023-04-07T11:03:24;15.50;;;7.47;;
74849;SDS011;63397;47.480;19.238;2023-04-07T11:06:27;12.75;;;5.32;;
74849;SDS011;63397;47.480;19.238;2023-04-07T11:09:29;18.10;;;7.05;;
74849;SDS011;63397;47.480;19.238;2023-04-07T11:12:32;19.30;;;7.18;;
74849;SDS011;63397;47.480;19.238;2023-04-07T11:15:34;15.32;;;7.28;;
74849;SDS011;63397;47.480;19.238;2023-04-07T11:18:41;13.80;;;6.70;;
74849;SDS011;63397;47.480;19.238;2023-04-07T11:21:43;13.80;;;7.03;;
74849;SDS011;63397;47.480;19.238;2023-04-07T11:24:46;20.15;;;8.30;;
74849;SDS011;63397;47.480;19.238;2023-04-07T11:27:48;15.25;;;7.25;;
74849;SDS011;63397;47.480;19.238;2023-04-07T11:30:51;17.77;;;6.53;;
74849;SDS011;63397;47.480;19.238;2023-04-07T11:33:54;13.73;;;7.20;;
74849;SDS011;63397;47.480;19.238;2023-04-07T11:36:57;17.48;;;7.28;;
74849;SDS011;63397;47.480;19.238;2023-04-07T11:40:04;19.23;;;8.10;;
74849;SDS011;63397;47.480;19.238;2023-04-07T11:43:16;16.73;;;6.50;;
74849;SDS011;63397;47.480;19.238;2023-04-07T11:46:19;15.88;;;8.00;;
74849;SDS011;63397;47.480;19.238;2023-04-07T11:49:22;19.00;;;7.53;;
74849;SDS011;63397;47.480;19.238;2023-04-07T11:52:39;15.65;;;7.53;;
74849;SDS011;63397;47.480;19.238;2023-04-07T11:55:41;16.38;;;7.47;;
74849;SDS011;63397;47.480;19.238;2023-04-07T11:58:50;18.95;;;7.93;;
74849;SDS011;63397;47.480;19.238;2023-04-07T12:01:52;14.90;;;6.45;;
74849;SDS011;63397;47.480;19.238;2023-04-07T12:04:58;15.27;;;7.10;;
74849;SDS011;63397;47.480;19.238;2023-04-07T12:08:00;16.67;;;6.88;;
74849;SDS011;63397;47.480;19.238;2023-04-07T12:11:03;16.90;;;7.22;;
74849;SDS011;63397;47.480;19.238;2023-04-07T12:14:06;19.05;;;7.38;;
74849;SDS011;63397;47.480;19.238;2023-04-07T12:17:22;13.55;;;6.22;;
74849;SDS011;63397;47.480;19.238;2023-04-07T12:20:25;16.77;;;7.53;;
74849;SDS011;63397;47.480;19.238;2023-04-07T12:23:28;18.90;;;7.40;;
74849;SDS011;63397;47.480;19.238;2023-04-07T12:26:30;15.57;;;7.40;;
74849;SDS011;63397;47.480;19.238;2023-04-07T12:29:32;17.25;;;7.68;;
74849;SDS011;63397;47.480;19.238;2023-04-07T12:32:35;17.50;;;8.00;;
74849;SDS011;63397;47.480;19.238;2023-04-07T12:35:39;17.03;;;7.83;;
74849;SDS011;63397;47.480;19.238;2023-04-07T12:38:41;18.63;;;8.20;;
74849;SDS011;63397;47.480;19.238;2023-04-07T12:41:44;16.60;;;7.78;;
74849;SDS011;63397;47.480;19.238;2023-04-07T12:44:50;17.65;;;7.78;;
74849;SDS011;63397;47.480;19.238;2023-04-07T12:47:52;14.90;;;7.40;;
74849;SDS011;63397;47.480;19.238;2023-04-07T12:50:54;20.83;;;7.63;;
74849;SDS011;63397;47.480;19.238;2023-04-07T12:53:57;17.70;;;7.60;;
74849;SDS011;63397;47.480;19.238;2023-04-07T12:56:59;18.80;;;8.48;;
74849;SDS011;63397;47.480;19.238;2023-04-07T13:00:02;14.40;;;5.95;;
74849;SDS011;63397;47.480;19.238;2023-04-07T13:03:04;17.23;;;8.18;;
74849;SDS011;63397;47.480;19.238;2023-04-07T13:06:06;18.07;;;7.17;;
74849;SDS011;63397;47.480;19.238;2023-04-07T13:09:09;15.45;;;7.40;;
74849;SDS011;63397;47.480;19.238;2023-04-07T13:12:11;18.90;;;7.72;;
74849;SDS011;63397;47.480;19.238;2023-04-07T13:15:13;15.70;;;7.43;;
74849;SDS011;63397;47.480;19.238;2023-04-07T13:18:16;14.77;;;7.18;;
74849;SDS011;63397;47.480;19.238;2023-04-07T13:21:18;15.80;;;7.37;;
74849;SDS011;63397;47.480;19.238;2023-04-07T13:24:41;14.55;;;6.43;;
74849;SDS011;63397;47.480;19.238;2023-04-07T13:27:43;12.32;;;5.43;;
74849;SDS011;63397;47.480;19.238;2023-04-07T13:30:46;14.30;;;6.45;;
74849;SDS011;63397;47.480;19.238;2023-04-07T13:33:48;17.13;;;7.00;;
74849;SDS011;63397;47.480;19.238;2023-04-07T13:36:51;14.50;;;5.40;;
74849;SDS011;63397;47.480;19.238;2023-04-07T13:39:53;13.15;;;5.75;;
74849;SDS011;63397;47.480;19.238;2023-04-07T13:42:55;13.32;;;6.38;;
74849;SDS011;63397;47.480;19.238;2023-04-07T13:46:02;13.15;;;5.55;;
74849;SDS011;63397;47.480;19.238;2023-04-07T13:49:07;12.07;;;5.10;;
74849;SDS011;63397;47.480;19.238;2023-04-07T13:52:09;13.10;;;5.63;;
74849;SDS011;63397;47.480;19.238;2023-04-07T13:55:11;16.63;;;6.55;;
74849;SDS011;63397;47.480;19.238;2023-04-07T13:58:13;15.65;;;5.75;;
74849;SDS011;63397;47.480;19.238;2023-04-07T14:01:16;15.73;;;5.78;;
74849;SDS011;63397;47.480;19.238;2023-04-07T14:04:18;14.55;;;6.15;;
74849;SDS011;63397;47.480;19.238;2023-04-07T14:07:20;11.60;;;5.57;;
74849;SDS011;63397;47.480;19.238;2023-04-07T14:10:24;15.65;;;6.07;;
74849;SDS011;63397;47.480;19.238;2023-04-07T14:13:26;15.48;;;7.95;;
74849;SDS011;63397;47.480;19.238;2023-04-07T14:16:28;14.82;;;6.72;;
74849;SDS011;63397;47.480;19.238;2023-04-07T14:19:31;15.50;;;6.65;;
74849;SDS011;63397;47.480;19.238;2023-04-07T14:22:34;13.73;;;7.13;;
74849;SDS011;63397;47.480;19.238;2023-04-07T14:25:36;9.75;;;4.68;;
74849;SDS011;63397;47.480;19.238;2023-04-07T14:28:39;14.48;;;6.60;;
74849;SDS011;63397;47.480;19.238;2023-04-07T14:31:41;14.77;;;6.68;;
74849;SDS011;63397;47.480;19.238;2023-04-07T14:34:44;17.02;;;7.25;;
74849;SDS011;63397;47.480;19.238;2023-04-07T14:37:47;17.77;;;6.97;;
74849;SDS011;63397;47.480;19.238;2023-04-07T14:40:49;13.45;;;6.30;;
74849;SDS011;63397;47.480;19.238;2023-04-07T14:43:51;14.25;;;5.93;;
74849;SDS011;63397;47.480;19.238;2023-04-07T14:46:57;14.25;;;6.68;;
74849;SDS011;63397;47.480;19.238;2023-04-07T14:49:59;17.00;;;6.40;;
74849;SDS011;63397;47.480;19.238;2023-04-07T14:53:01;17.03;;;6.90;;
74849;SDS011;63397;47.480;19.238;2023-04-07T14:56:05;19.35;;;7.88;;
74849;SDS011;63397;47.480;19.238;2023-04-07T14:59:07;15.30;;;5.82;;
74849;SDS011;63397;47.480;19.238;2023-04-07T15:02:09;16.73;;;7.30;;
74849;SDS011;63397;47.480;19.238;2023-04-07T15:05:12;18.08;;;7.30;;
74849;SDS011;63397;47.480;19.238;2023-04-07T15:08:15;13.80;;;6.23;;
74849;SDS011;63397;47.480;19.238;2023-04-07T15:11:17;14.00;;;5.93;;
74849;SDS011;63397;47.480;19.238;2023-04-07T15:14:19;16.85;;;6.22;;
74849;SDS011;63397;47.480;19.238;2023-04-07T15:17:22;15.50;;;6.85;;
74849;SDS011;63397;47.480;19.238;2023-04-07T15:20:41;14.35;;;6.35;;
74849;SDS011;63397;47.480;19.238;2023-04-07T15:23:44;12.90;;;6.40;;
74849;SDS011;63397;47.480;19.238;2023-04-07T15:26:47;13.45;;;5.20;;
74849;SDS011;63397;47.480;19.238;2023-04-07T15:29:49;17.45;;;7.10;;
74849;SDS011;63397;47.480;19.238;2023-04-07T15:32:55;12.73;;;6.22;;
74849;SDS011;63397;47.480;19.238;2023-04-07T15:35:58;16.45;;;7.25;;
74849;SDS011;63397;47.480;19.238;2023-04-07T15:39:02;13.13;;;5.93;;
74849;SDS011;63397;47.480;19.238;2023-04-07T15:42:05;14.85;;;7.15;;
74849;SDS011;63397;47.480;19.238;2023-04-07T15:45:13;16.20;;;5.75;;
74849;SDS011;63397;47.480;19.238;2023-04-07T15:48:15;17.38;;;6.50;;
74849;SDS011;63397;47.480;19.238;2023-04-07T15:51:18;13.63;;;5.78;;
74849;SDS011;63397;47.480;19.238;2023-04-07T15:54:20;14.03;;;6.40;;
74849;SDS011;63397;47.480;19.238;2023-04-07T15:57:23;15.20;;;6.03;;
74849;SDS011;63397;47.480;19.238;2023-04-07T16:00:25;16.55;;;7.00;;
74849;SDS011;63397;47.480;19.238;2023-04-07T16:03:28;13.35;;;6.50;;
74849;SDS011;63397;47.480;19.238;2023-04-07T16:06:30;11.15;;;5.55;;
74849;SDS011;63397;47.480;19.238;2023-04-07T16:09:33;14.63;;;6.33;;
74849;SDS011;63397;47.480;19.238;2023-04-07T16:12:35;16.38;;;6.95;;
74849;SDS011;63397;47.480;19.238;2023-04-07T16:15:37;19.23;;;5.72;;
74849;SDS011;63397;47.480;19.238;2023-04-07T16:18:42;17.98;;;7.45;;
74849;SDS011;63397;47.480;19.238;2023-04-07T16:21:44;16.45;;;6.47;;
74849;SDS011;63397;47.480;19.238;2023-04-07T16:24:47;13.13;;;5.93;;
74849;SDS011;63397;47.480;19.238;2023-04-07T16:27:50;15.35;;;6.38;;
74849;SDS011;63397;47.480;19.238;2023-04-07T16:30:53;9.95;;;4.80;;
74849;SDS011;63397;47.480;19.238;2023-04-07T16:33:55;12.55;;;5.45;;
74849;SDS011;63397;47.480;19.238;2023-04-07T16:36:58;15.93;;;6.97;;
74849;SDS011;63397;47.480;19.238;2023-04-07T16:40:00;13.63;;;5.30;;
74849;SDS011;63397;47.480;19.238;2023-04-07T16:43:03;9.45;;;5.38;;
74849;SDS011;63397;47.480;19.238;2023-04-07T16:46:05;14.50;;;5.28;;
74849;SDS011;63397;47.480;19.238;2023-04-07T16:49:07;13.32;;;5.55;;
74849;SDS011;63397;47.480;19.238;2023-04-07T16:52:11;14.88;;;5.07;;
74849;SDS011;63397;47.480;19.238;2023-04-07T16:55:14;12.70;;;5.67;;
74849;SDS011;63397;47.480;19.238;2023-04-07T16:58:16;16.23;;;6.97;;
74849;SDS011;63397;47.480;19.238;2023-04-07T17:01:20;14.30;;;6.47;;
74849;SDS011;63397;47.480;19.238;2023-04-07T17:04:22;13.25;;;6.03;;
74849;SDS011;63397;47.480;19.238;2023-04-07T17:07:25;12.55;;;5.45;;
74849;SDS011;63397;47.480;19.238;2023-04-07T17:10:28;14.27;;;5.47;;
74849;SDS011;63397;47.480;19.238;2023-04-07T17:13:30;13.73;;;5.03;;
74849;SDS011;63397;47.480;19.238;2023-04-07T17:16:32;11.65;;;5.53;;
74849;SDS011;63397;47.480;19.238;2023-04-07T17:19:34;15.73;;;5.70;;
74849;SDS011;63397;47.480;19.238;2023-04-07T17:22:37;13.25;;;6.03;;
74849;SDS011;63397;47.480;19.238;2023-04-07T17:25:39;12.43;;;5.17;;
74849;SDS011;63397;47.480;19.238;2023-04-07T17:28:42;13.18;;;5.80;;
74849;SDS011;63397;47.480;19.238;2023-04-07T17:31:45;11.75;;;5.20;;
74849;SDS011;63397;47.480;19.238;2023-04-07T17:34:47;11.73;;;5.22;;
74849;SDS011;63397;47.480;19.238;2023-04-07T17:37:49;13.10;;;6.45;;
74849;SDS011;63397;47.480;19.238;2023-04-07T17:40:56;13.97;;;6.50;;
74849;SDS011;63397;47.480;19.238;2023-04-07T17:43:59;12.68;;;5.57;;
74849;SDS011;63397;47.480;19.238;2023-04-07T17:47:01;12.00;;;4.70;;
74849;SDS011;63397;47.480;19.238;2023-04-07T17:50:04;14.25;;;5.40;;
74849;SDS011;63397;47.480;19.238;2023-04-07T17:53:06;11.70;;;5.50;;
74849;SDS011;63397;47.480;19.238;2023-04-07T17:56:08;15.50;;;4.77;;
74849;SDS011;63397;47.480;19.238;2023-04-07T17:59:11;19.13;;;6.15;;
74849;SDS011;63397;47.480;19.238;2023-04-07T18:02:13;12.95;;;4.90;;
74849;SDS011;63397;47.480;19.238;2023-04-07T18:05:15;15.65;;;4.75;;
74849;SDS011;63397;47.480;19.238;2023-04-07T18:08:19;13.02;;;6.28;;
74849;SDS011;63397;47.480;19.238;2023-04-07T18:11:21;13.07;;;5.93;;
74849;SDS011;63397;47.480;19.238;2023-04-07T18:14:24;13.85;;;5.65;;
74849;SDS011;63397;47.480;19.238;2023-04-07T18:17:27;11.98;;;5.55;;
74849;SDS011;63397;47.480;19.238;2023-04-07T18:20:29;13.93;;;4.75;;
74849;SDS011;63397;47.480;19.238;2023-04-07T18:23:32;16.70;;;5.57;;
74849;SDS011;63397;47.480;19.238;2023-04-07T18:26:35;16.90;;;6.73;;
74849;SDS011;63397;47.480;19.238;2023-04-07T18:29:37;16.02;;;5.47;;